臺北終端管制區 - 桃園五邊雷達席

METAR RCTP 211200Z 21008KT 9999 FEW012 BKN050 24/21 Q1015 NOSIG RMK A2999=

站台狀態:Offline
最後更新:2024-02-21 20:00:01